createdAt,value
2022-08-26T00:00:57.012Z,8.45
2022-08-26T00:04:39.073Z,8.23
2022-08-26T00:08:21.386Z,4.82
2022-08-26T00:12:04.281Z,9.05
2022-08-26T00:15:47.036Z,9.15
2022-08-26T00:19:29.370Z,11.68
2022-08-26T00:23:11.561Z,9.65
2022-08-26T00:26:53.712Z,8.55
2022-08-26T00:30:35.771Z,10.83
2022-08-26T00:34:19.529Z,8.07
2022-08-26T00:38:02.338Z,8.60
2022-08-26T00:41:44.876Z,10.27
2022-08-26T00:45:27.563Z,8.38
2022-08-26T00:49:44.340Z,12.65
2022-08-26T00:53:30.359Z,8.57
2022-08-26T00:57:18.304Z,11.00
2022-08-26T01:01:01.033Z,7.90
2022-08-26T01:04:45.091Z,10.95
2022-08-26T01:08:27.901Z,12.37
2022-08-26T01:12:09.799Z,12.68
2022-08-26T01:15:56.462Z,10.88
2022-08-26T01:19:42.951Z,7.47
2022-08-26T01:23:31.339Z,10.07
2022-08-26T01:27:18.172Z,6.63
2022-08-26T01:31:03.672Z,11.65
2022-08-26T01:34:48.189Z,8.27
2022-08-26T01:38:30.827Z,9.05
2022-08-26T01:42:15.996Z,10.27
2022-08-26T01:46:00.906Z,9.47
2022-08-26T01:49:46.234Z,7.47
2022-08-26T01:53:28.461Z,14.57
2022-08-26T01:57:10.767Z,10.10
2022-08-26T02:00:53.016Z,9.13
2022-08-26T02:04:40.160Z,8.02
2022-08-26T02:08:34.831Z,7.97
2022-08-26T02:12:19.664Z,8.75
2022-08-26T02:16:04.112Z,11.32
2022-08-26T02:19:48.940Z,8.13
2022-08-26T02:23:31.413Z,9.50
2022-08-26T02:27:14.879Z,10.18
2022-08-26T02:30:57.001Z,7.47
2022-08-26T02:34:38.937Z,12.43
2022-08-26T02:38:21.283Z,9.13
2022-08-26T02:42:03.995Z,11.55
2022-08-26T02:45:46.192Z,8.95
2022-08-26T02:49:30.520Z,6.70
2022-08-26T02:53:13.380Z,11.50
2022-08-26T02:56:56.405Z,12.30
2022-08-26T03:00:52.763Z,10.30
2022-08-26T03:04:35.516Z,6.70
2022-08-26T03:08:17.638Z,8.95
2022-08-26T03:12:00.358Z,9.50
2022-08-26T03:15:42.352Z,11.00
2022-08-26T03:19:26.249Z,11.75
2022-08-26T03:23:09.092Z,9.43
2022-08-26T03:26:52.817Z,8.88
2022-08-26T03:30:45.073Z,9.23
2022-08-26T03:34:28.137Z,9.82
2022-08-26T03:38:10.915Z,8.00
2022-08-26T03:41:52.828Z,8.10
2022-08-26T03:45:36.580Z,8.80
2022-08-26T03:49:22.297Z,6.50
2022-08-26T03:53:04.538Z,8.32
2022-08-26T03:56:49.248Z,8.23
2022-08-26T04:00:31.174Z,8.18
2022-08-26T04:04:15.670Z,6.40
2022-08-26T04:07:57.783Z,6.88
2022-08-26T04:11:42.574Z,8.02
2022-08-26T04:15:24.789Z,8.67
2022-08-26T04:19:06.793Z,6.82
2022-08-26T04:22:49.222Z,7.35
2022-08-26T04:26:37.082Z,8.90
2022-08-26T04:30:22.240Z,8.73
2022-08-26T04:34:05.459Z,8.07
2022-08-26T04:37:49.081Z,6.45
2022-08-26T04:41:31.704Z,5.80
2022-08-26T04:45:14.180Z,9.43
2022-08-26T04:48:56.231Z,10.57
2022-08-26T04:52:38.246Z,7.33
2022-08-26T04:56:20.098Z,8.95
2022-08-26T05:00:04.047Z,7.60
2022-08-26T05:03:47.796Z,7.60
2022-08-26T05:07:30.323Z,6.80
2022-08-26T05:11:14.196Z,6.35
2022-08-26T05:14:56.579Z,5.13
2022-08-26T05:18:41.208Z,6.53
2022-08-26T05:22:25.302Z,6.57
2022-08-26T05:26:08.591Z,7.25
2022-08-26T05:30:15.858Z,6.80
2022-08-26T05:33:58.324Z,8.93
2022-08-26T05:37:40.631Z,6.70
2022-08-26T05:41:42.192Z,8.90
2022-08-26T05:45:27.046Z,6.25
2022-08-26T05:49:29.128Z,8.80
2022-08-26T05:53:55.060Z,6.13
2022-08-26T05:57:42.823Z,8.32
2022-08-26T06:01:50.570Z,8.57
2022-08-26T06:05:57.054Z,4.85
2022-08-26T06:09:44.841Z,7.33
2022-08-26T06:13:50.997Z,9.05
2022-08-26T06:17:35.822Z,12.05
2022-08-26T06:25:38.908Z,7.15
2022-08-26T06:43:29.290Z,8.20
2022-08-26T06:47:59.664Z,7.40
2022-08-26T06:51:42.476Z,6.03
2022-08-26T07:00:02.222Z,6.20
2022-08-26T07:03:47.350Z,5.38
2022-08-26T07:07:55.598Z,5.95
2022-08-26T07:11:39.704Z,5.78
2022-08-26T07:15:24.006Z,5.63
2022-08-26T07:19:38.717Z,6.32
2022-08-26T07:23:41.518Z,6.80
2022-08-26T07:27:24.788Z,5.75
2022-08-26T07:31:11.772Z,6.63
2022-08-26T07:34:57.313Z,7.67
2022-08-26T07:38:42.207Z,7.05
2022-08-26T07:42:25.723Z,5.65
2022-08-26T07:50:50.274Z,6.23
2022-08-26T07:54:45.822Z,8.80
2022-08-26T07:58:36.412Z,9.02
2022-08-26T08:02:29.282Z,7.13
2022-08-26T08:06:28.582Z,7.35
2022-08-26T08:10:18.110Z,5.72
2022-08-26T08:18:15.649Z,9.38
2022-08-26T08:22:37.926Z,7.97
2022-08-26T08:26:20.625Z,6.68
2022-08-26T08:34:05.852Z,6.40
2022-08-26T08:42:32.803Z,10.03
2022-08-26T08:46:19.433Z,6.47
2022-08-26T08:54:10.550Z,6.60
2022-08-26T08:58:39.849Z,6.13
2022-08-26T09:02:47.980Z,5.47
2022-08-26T09:06:36.126Z,5.97
2022-08-26T09:11:10.985Z,5.17
2022-08-26T09:19:18.830Z,7.88
2022-08-26T09:23:04.374Z,6.67
2022-08-26T09:26:52.657Z,5.28
2022-08-26T09:30:35.425Z,6.75
2022-08-26T09:34:42.624Z,5.53
2022-08-26T09:42:36.685Z,6.03
2022-08-26T09:46:43.740Z,6.00
2022-08-26T09:50:31.416Z,4.57
2022-08-26T09:54:36.815Z,6.35
2022-08-26T10:02:57.976Z,5.67
2022-08-26T10:07:21.600Z,6.32
2022-08-26T10:11:30.999Z,6.07
2022-08-26T10:15:19.749Z,5.33
2022-08-26T10:19:56.244Z,5.85
2022-08-26T10:24:16.717Z,4.47
2022-08-26T10:32:55.739Z,8.07
2022-08-26T10:41:26.915Z,5.85
2022-08-26T10:49:18.145Z,6.00
2022-08-26T10:53:33.762Z,5.15
2022-08-26T10:58:04.977Z,6.43
2022-08-26T11:02:33.828Z,4.80
2022-08-26T11:06:19.535Z,6.05
2022-08-26T11:10:46.553Z,6.03
2022-08-26T11:14:42.021Z,8.60
2022-08-26T11:18:40.949Z,8.43
2022-08-26T11:22:50.353Z,5.47
2022-08-26T11:26:55.652Z,5.67
2022-08-26T11:30:47.175Z,5.75
2022-08-26T11:34:52.085Z,5.88
2022-08-26T11:38:42.549Z,5.17
2022-08-26T11:42:45.092Z,5.75
2022-08-26T11:46:37.585Z,5.82
2022-08-26T11:55:09.313Z,6.10
2022-08-26T11:58:57.125Z,5.87
2022-08-26T12:06:51.073Z,6.05
2022-08-26T12:14:42.009Z,5.13
2022-08-26T12:22:48.247Z,7.03
2022-08-26T12:27:11.051Z,6.38
2022-08-26T12:34:58.065Z,4.22
2022-08-26T12:38:41.088Z,5.83
2022-08-26T12:42:48.638Z,4.80
2022-08-26T12:46:31.901Z,5.47
2022-08-26T12:50:43.911Z,4.53
2022-08-26T12:58:39.202Z,4.45
2022-08-26T13:06:30.187Z,6.28
2022-08-26T13:10:57.868Z,4.82
2022-08-26T13:14:40.623Z,6.03
2022-08-26T13:18:31.038Z,7.30
2022-08-26T13:22:20.531Z,7.80
2022-08-26T13:31:14.921Z,5.37
2022-08-26T13:39:10.451Z,5.07
2022-08-26T13:43:38.247Z,4.17
2022-08-26T13:51:33.647Z,5.85
2022-08-26T13:59:26.712Z,5.10
2022-08-26T14:03:55.410Z,4.35
2022-08-26T14:07:37.427Z,3.45
2022-08-26T14:15:25.418Z,3.83
2022-08-26T14:19:20.911Z,4.50
2022-08-26T14:23:14.393Z,3.73
2022-08-26T14:27:13.939Z,5.20
2022-08-26T14:30:58.358Z,5.43
2022-08-26T14:35:27.818Z,4.13
2022-08-26T14:43:22.399Z,4.40
2022-08-26T14:47:50.856Z,4.20
2022-08-26T14:51:32.846Z,4.80
2022-08-26T14:55:24.121Z,5.72
2022-08-26T14:59:07.433Z,3.58
2022-08-26T15:07:02.952Z,5.47
2022-08-26T15:11:40.524Z,5.85
2022-08-26T15:19:25.729Z,5.63
2022-08-26T15:23:53.199Z,5.82
2022-08-26T15:27:35.795Z,5.68
2022-08-26T15:32:02.905Z,5.37
2022-08-26T15:36:16.596Z,5.35
2022-08-26T15:39:58.805Z,6.85
2022-08-26T15:48:00.938Z,6.00
2022-08-26T15:52:05.488Z,3.60
2022-08-26T15:59:58.842Z,3.75
2022-08-26T16:07:51.022Z,4.38
2022-08-26T16:15:44.637Z,3.30
2022-08-26T16:20:12.274Z,3.67
2022-08-26T16:23:55.572Z,4.17
2022-08-26T16:31:43.009Z,3.95
2022-08-26T16:35:59.218Z,3.88
2022-08-26T16:39:45.269Z,3.88
2022-08-26T16:43:53.351Z,4.22
2022-08-26T16:51:48.919Z,4.70
2022-08-26T16:56:15.027Z,4.53
2022-08-26T16:59:57.386Z,4.37
2022-08-26T17:07:46.106Z,9.02
2022-08-26T17:12:01.733Z,4.75
2022-08-26T17:19:56.423Z,5.35
2022-08-26T17:24:25.038Z,4.72
2022-08-26T17:28:12.681Z,4.20
2022-08-26T17:32:20.189Z,3.35
2022-08-26T17:40:15.805Z,3.43
2022-08-26T17:48:18.351Z,5.32
2022-08-26T17:52:34.821Z,7.50
2022-08-26T18:00:30.052Z,3.90
2022-08-26T18:08:22.531Z,3.33
2022-08-26T18:16:18.938Z,3.63
2022-08-26T18:24:22.652Z,3.30
2022-08-26T18:28:37.813Z,4.57
2022-08-26T18:32:19.701Z,4.55
2022-08-26T18:36:33.915Z,4.22
2022-08-26T18:44:38.712Z,3.72
2022-08-26T18:48:56.790Z,4.53
2022-08-26T18:53:24.833Z,4.95
2022-08-26T18:57:07.159Z,5.50
2022-08-26T19:00:56.946Z,4.53
2022-08-26T19:04:39.508Z,5.00
2022-08-26T19:08:21.893Z,5.32
2022-08-26T19:12:13.198Z,5.50
2022-08-26T19:15:55.445Z,4.63
2022-08-26T19:19:37.862Z,3.70
2022-08-26T19:23:31.396Z,6.70
2022-08-26T19:27:15.066Z,4.63
2022-08-26T19:30:57.257Z,5.75
2022-08-26T19:34:39.258Z,6.40
2022-08-26T19:38:21.456Z,4.93
2022-08-26T19:42:03.512Z,4.03
2022-08-26T19:45:45.425Z,3.60
2022-08-26T19:49:27.403Z,3.83
2022-08-26T19:53:10.217Z,7.70
2022-08-26T19:56:52.179Z,6.90
2022-08-26T20:00:35.783Z,5.15
2022-08-26T20:04:17.892Z,5.33
2022-08-26T20:07:59.885Z,7.25
2022-08-26T20:11:41.774Z,6.35
2022-08-26T20:15:24.195Z,6.50
2022-08-26T20:19:24.931Z,4.90
2022-08-26T20:23:07.098Z,5.10
2022-08-26T20:26:49.886Z,5.78
2022-08-26T20:30:32.052Z,5.65
2022-08-26T20:34:15.955Z,5.13
2022-08-26T20:37:57.906Z,4.55
2022-08-26T20:41:41.155Z,4.60
2022-08-26T20:45:23.177Z,4.53
2022-08-26T20:49:07.398Z,3.28
2022-08-26T20:52:49.574Z,5.57
2022-08-26T20:56:31.549Z,9.55
2022-08-26T21:00:16.115Z,4.00
2022-08-26T21:03:59.958Z,6.50
2022-08-26T21:07:41.885Z,3.53
2022-08-26T21:11:23.953Z,6.70
2022-08-26T21:15:07.502Z,4.22
2022-08-26T21:18:50.155Z,3.83
2022-08-26T21:22:32.089Z,4.07
2022-08-26T21:26:16.811Z,5.15
2022-08-26T21:29:58.843Z,4.63
2022-08-26T21:33:41.741Z,4.63
2022-08-26T21:37:26.939Z,3.85
2022-08-26T21:41:12.175Z,3.88
2022-08-26T21:44:54.798Z,3.40
2022-08-26T21:48:37.126Z,4.45
2022-08-26T21:52:19.795Z,3.63
2022-08-26T21:56:06.907Z,4.63
2022-08-26T21:59:48.995Z,4.03
2022-08-26T22:03:31.290Z,5.50
2022-08-26T22:07:22.691Z,4.97
2022-08-26T22:11:05.649Z,4.60
2022-08-26T22:14:48.298Z,4.88
2022-08-26T22:18:30.819Z,4.45
2022-08-26T22:22:13.123Z,4.55
2022-08-26T22:25:56.051Z,4.47
2022-08-26T22:29:38.160Z,4.82
2022-08-26T22:33:20.308Z,3.70
2022-08-26T22:37:03.297Z,4.28
2022-08-26T22:40:48.524Z,4.03
2022-08-26T22:44:32.114Z,3.73
2022-08-26T22:48:18.059Z,5.30
2022-08-26T22:52:00.054Z,3.92
2022-08-26T22:55:43.605Z,4.43
2022-08-26T22:59:25.536Z,4.90
2022-08-26T23:03:08.343Z,4.18
2022-08-26T23:06:50.435Z,4.25
2022-08-26T23:10:33.032Z,5.33
2022-08-26T23:14:17.005Z,6.00
2022-08-26T23:17:59.126Z,3.53
2022-08-26T23:21:41.280Z,5.10
2022-08-26T23:25:24.381Z,4.70
2022-08-26T23:29:08.261Z,6.43
2022-08-26T23:32:51.310Z,5.05
2022-08-26T23:36:33.455Z,3.83
2022-08-26T23:40:26.947Z,5.32
2022-08-26T23:44:09.038Z,5.30
2022-08-26T23:47:51.310Z,3.93
2022-08-26T23:51:52.036Z,4.80
2022-08-26T23:55:36.316Z,6.03
2022-08-26T23:59:18.279Z,5.17
